Time;durP1;ratioP1;P1;durP2;ratioP2;P2;SDS_P1;SDS_P2;PMS_P1;PMS_P2;Temp;Humidity;BMP_temperature;BMP_pressure;BME280_temperature;BME280_humidity;BME280_pressure;Samples;Min_cycle;Max_cycle;Signal;HPM_P1;HPM_P2
2021/04/30 00:01:23;;;;;;;32.90;19.60;;;;;;;;;;749694;183;918824;-66
2021/04/30 00:03:49;;;;;;;30.73;16.73;;;;;;;;;;754273;184;919422;-67
2021/04/30 00:06:15;;;;;;;23.73;11.10;;;;;;;;;;748960;184;919616;-66
2021/04/30 00:08:41;;;;;;;14.77;8.30;;;;;;;;;;748108;184;1021628;-67
2021/04/30 00:11:09;;;;;;;12.90;8.37;;;;;;;;;;736684;186;2416289;-66
2021/04/30 00:13:35;;;;;;;16.23;10.07;;;;;;;;;;754355;185;918495;-67
2021/04/30 00:16:02;;;;;;;17.43;10.93;;;;;;;;;;754433;182;1220725;-68
2021/04/30 00:18:28;;;;;;;20.80;12.83;;;;;;;;;;754454;182;887748;-67
2021/04/30 00:20:55;;;;;;;16.13;10.60;;;;;;;;;;755716;184;923239;-67
2021/04/30 00:23:24;;;;;;;16.77;10.17;;;;;;;;;;750950;186;918543;-67
2021/04/30 00:25:46;;;;;;;13.63;8.90;;;;;;;;;;741681;189;918616;-67
2021/04/30 00:28:12;;;;;;;17.10;9.70;;;;;;;;;;750403;182;918448;-68
2021/04/30 00:30:38;;;;;;;14.40;8.40;;;;;;;;;;753233;183;919361;-66
2021/04/30 00:33:03;;;;;;;18.37;10.03;;;;;;;;;;747218;183;920974;-67
2021/04/30 00:35:29;;;;;;;16.90;10.17;;;;;;;;;;751447;183;919921;-67
2021/04/30 00:37:55;;;;;;;16.40;10.10;;;;;;;;;;747001;183;1163428;-68
2021/04/30 00:40:21;;;;;;;21.33;11.03;;;;;;;;;;753413;184;625953;-68
2021/04/30 00:42:47;;;;;;;27.43;11.50;;;;;;;;;;752629;183;618908;-68
2021/04/30 00:45:15;;;;;;;20.67;10.77;;;;;;;;;;758160;185;642123;-67
2021/04/30 00:47:41;;;;;;;15.17;11.10;;;;;;;;;;749488;183;919611;-68
2021/04/30 00:50:07;;;;;;;19.00;11.53;;;;;;;;;;759141;182;915142;-67
2021/04/30 00:52:35;;;;;;;20.20;12.43;;;;;;;;;;763344;179;916411;-68
2021/04/30 00:54:59;;;;;;;17.53;11.90;;;;;;;;;;760683;179;920142;-69
2021/04/30 00:57:25;;;;;;;15.90;12.57;;;;;;;;;;755629;179;918009;-68
2021/04/30 00:59:51;;;;;;;15.77;10.80;;;;;;;;;;757764;179;1398614;-68
2021/04/30 01:02:17;;;;;;;20.13;12.50;;;;;;;;;;771687;179;1021299;-69
2021/04/30 01:04:42;;;;;;;20.07;11.10;;;;;;;;;;763106;179;931532;-68
2021/04/30 01:07:08;;;;;;;19.37;12.43;;;;;;;;;;768497;179;918012;-68
2021/04/30 01:09:34;;;;;;;23.80;13.50;;;;;;;;;;771361;179;627706;-71
2021/04/30 01:12:01;;;;;;;20.67;13.20;;;;;;;;;;768591;179;919550;-69
2021/04/30 01:14:26;;;;;;;20.27;13.73;;;;;;;;;;755483;182;919534;-68
2021/04/30 01:16:52;;;;;;;21.43;13.10;;;;;;;;;;771947;179;614143;-70
2021/04/30 01:19:18;;;;;;;20.33;12.47;;;;;;;;;;742103;179;5221572;-69
2021/04/30 01:21:44;;;;;;;21.73;12.93;;;;;;;;;;762988;179;919083;-68
2021/04/30 01:24:10;;;;;;;20.20;13.77;;;;;;;;;;764627;179;919513;-68
2021/04/30 01:26:36;;;;;;;20.20;12.80;;;;;;;;;;766757;178;919234;-70
2021/04/30 01:29:05;;;;;;;16.90;12.60;;;;;;;;;;755935;184;919424;-70
2021/04/30 01:31:32;;;;;;;25.30;12.30;;;;;;;;;;768731;179;919187;-70
2021/04/30 01:33:58;;;;;;;21.90;13.20;;;;;;;;;;769119;182;919813;-68
2021/04/30 01:36:24;;;;;;;19.57;13.30;;;;;;;;;;764911;179;918887;-68
2021/04/30 01:38:50;;;;;;;19.23;13.37;;;;;;;;;;765854;179;919141;-68
2021/04/30 01:41:16;;;;;;;19.80;11.97;;;;;;;;;;752002;182;1373954;-68
2021/04/30 01:43:42;;;;;;;18.43;13.50;;;;;;;;;;764923;182;919053;-69
2021/04/30 01:46:07;;;;;;;22.70;13.50;;;;;;;;;;763604;182;919020;-69
2021/04/30 01:48:34;;;;;;;17.40;13.13;;;;;;;;;;766126;182;918498;-69
2021/04/30 01:50:59;;;;;;;20.90;12.77;;;;;;;;;;768937;182;919240;-70
2021/04/30 01:53:25;;;;;;;20.13;13.80;;;;;;;;;;766861;182;1019702;-69
2021/04/30 01:55:51;;;;;;;24.93;15.63;;;;;;;;;;759362;180;918272;-68
2021/04/30 01:58:17;;;;;;;24.17;12.30;;;;;;;;;;764180;182;1027530;-71
2021/04/30 02:00:43;;;;;;;25.83;14.20;;;;;;;;;;764687;179;918700;-69
2021/04/30 02:03:08;;;;;;;20.48;14.48;;;;;;;;;;758504;179;918305;-69
2021/04/30 02:05:37;;;;;;;21.90;14.60;;;;;;;;;;767794;179;919048;-72
2021/04/30 02:08:04;;;;;;;23.60;13.70;;;;;;;;;;766573;179;919508;-69
2021/04/30 02:10:30;;;;;;;19.43;12.93;;;;;;;;;;762717;179;1021674;-69
2021/04/30 02:12:56;;;;;;;21.53;14.57;;;;;;;;;;759929;179;918505;-69
2021/04/30 02:15:22;;;;;;;23.10;14.00;;;;;;;;;;771450;182;919538;-69
2021/04/30 02:17:47;;;;;;;24.70;15.50;;;;;;;;;;763826;182;919437;-68
2021/04/30 02:20:14;;;;;;;19.80;12.40;;;;;;;;;;765027;179;918927;-69
2021/04/30 02:22:39;;;;;;;22.40;15.40;;;;;;;;;;767180;179;910905;-69
2021/04/30 02:25:06;;;;;;;23.90;15.83;;;;;;;;;;767748;179;919355;-68
2021/04/30 02:27:31;;;;;;;23.20;14.40;;;;;;;;;;760125;179;1755796;-69
2021/04/30 02:29:57;;;;;;;20.97;14.17;;;;;;;;;;761597;179;1022030;-69
2021/04/30 02:32:23;;;;;;;24.77;13.97;;;;;;;;;;764713;180;919001;-68
2021/04/30 02:34:49;;;;;;;25.77;14.90;;;;;;;;;;765717;178;1789051;-69
2021/04/30 02:37:15;;;;;;;26.87;14.77;;;;;;;;;;768807;179;653689;-69
2021/04/30 02:39:41;;;;;;;25.37;15.50;;;;;;;;;;764573;185;642183;-68
2021/04/30 02:42:07;;;;;;;27.43;16.20;;;;;;;;;;771911;179;624703;-69
2021/04/30 02:44:32;;;;;;;19.77;14.30;;;;;;;;;;764829;179;816003;-70
2021/04/30 02:46:58;;;;;;;21.10;15.15;;;;;;;;;;771673;179;921776;-69
2021/04/30 02:49:38;;;;;;;25.83;13.80;;;;;;;;;;738293;179;5685175;-69
2021/04/30 02:51:51;;;;;;;24.85;16.35;;;;;;;;;;764897;179;918586;-69
2021/04/30 02:54:16;;;;;;;23.17;15.20;;;;;;;;;;765213;179;918626;-70
2021/04/30 02:56:42;;;;;;;29.20;17.27;;;;;;;;;;756868;182;915912;-69
2021/04/30 02:59:08;;;;;;;27.00;15.70;;;;;;;;;;765573;179;918407;-69
2021/04/30 03:01:34;;;;;;;24.63;15.27;;;;;;;;;;766206;179;916274;-69
2021/04/30 03:04:00;;;;;;;28.23;14.43;;;;;;;;;;769159;179;922478;-69
2021/04/30 03:06:26;;;;;;;24.50;14.70;;;;;;;;;;764625;179;922270;-70
2021/04/30 03:08:53;;;;;;;23.40;14.23;;;;;;;;;;761753;179;981679;-70
2021/04/30 03:11:17;;;;;;;17.67;13.10;;;;;;;;;;765127;182;918804;-69
2021/04/30 03:13:43;;;;;;;20.50;14.80;;;;;;;;;;755244;179;1719643;-70
2021/04/30 03:16:09;;;;;;;21.80;15.13;;;;;;;;;;765815;179;918761;-70
2021/04/30 03:18:35;;;;;;;21.03;13.63;;;;;;;;;;763244;182;919120;-69
2021/04/30 03:21:01;;;;;;;27.50;14.30;;;;;;;;;;765163;179;920933;-69
2021/04/30 03:23:28;;;;;;;16.57;12.40;;;;;;;;;;765498;179;919547;-70
2021/04/30 03:25:54;;;;;;;19.23;12.75;;;;;;;;;;761667;182;919598;-70
2021/04/30 03:28:20;;;;;;;18.37;13.37;;;;;;;;;;768943;182;919449;-69
2021/04/30 03:30:45;;;;;;;14.87;12.17;;;;;;;;;;755856;179;918192;-70
2021/04/30 03:33:11;;;;;;;19.27;12.47;;;;;;;;;;766389;179;918744;-71
2021/04/30 03:35:37;;;;;;;17.30;12.03;;;;;;;;;;752578;179;3736515;-69
2021/04/30 03:38:04;;;;;;;15.52;10.95;;;;;;;;;;764844;182;919454;-69
2021/04/30 03:40:29;;;;;;;20.30;13.10;;;;;;;;;;764135;179;919274;-70
2021/04/30 03:42:55;;;;;;;15.10;11.07;;;;;;;;;;769676;180;918773;-70
2021/04/30 03:45:20;;;;;;;17.97;12.53;;;;;;;;;;753644;179;918877;-69
2021/04/30 03:47:46;;;;;;;17.83;12.63;;;;;;;;;;766430;179;919264;-69
2021/04/30 03:50:12;;;;;;;19.40;13.33;;;;;;;;;;764575;179;950000;-69
2021/04/30 03:52:38;;;;;;;22.20;12.07;;;;;;;;;;754535;182;918246;-69
2021/04/30 03:55:04;;;;;;;23.23;13.00;;;;;;;;;;755865;179;1240696;-69
2021/04/30 03:57:30;;;;;;;18.60;12.43;;;;;;;;;;764606;180;926497;-69
2021/04/30 03:59:57;;;;;;;15.47;10.63;;;;;;;;;;767764;179;913895;-70
2021/04/30 04:02:22;;;;;;;29.63;12.53;;;;;;;;;;769695;179;676498;-71
2021/04/30 04:04:48;;;;;;;19.30;12.33;;;;;;;;;;765203;179;936982;-69
2021/04/30 04:07:14;;;;;;;17.37;12.60;;;;;;;;;;770215;179;874326;-69
2021/04/30 04:09:40;;;;;;;19.20;12.07;;;;;;;;;;765921;179;919465;-69
2021/04/30 04:12:06;;;;;;;18.03;11.63;;;;;;;;;;763207;180;943767;-68
2021/04/30 04:14:32;;;;;;;17.97;12.60;;;;;;;;;;763807;179;918497;-69
2021/04/30 04:16:58;;;;;;;17.77;11.83;;;;;;;;;;757850;179;917413;-69
2021/04/30 04:19:24;;;;;;;17.30;11.87;;;;;;;;;;765242;179;919709;-69
2021/04/30 04:21:50;;;;;;;18.30;12.13;;;;;;;;;;762500;179;884525;-69
2021/04/30 04:24:16;;;;;;;17.45;12.93;;;;;;;;;;768938;179;916742;-69
2021/04/30 04:26:42;;;;;;;16.93;12.20;;;;;;;;;;762793;180;915981;-68
2021/04/30 04:29:08;;;;;;;15.95;12.23;;;;;;;;;;767180;179;921092;-69
2021/04/30 04:31:33;;;;;;;25.33;13.20;;;;;;;;;;766974;180;916072;-68
2021/04/30 04:33:59;;;;;;;22.47;13.03;;;;;;;;;;764206;179;913050;-69
2021/04/30 04:36:26;;;;;;;18.23;11.73;;;;;;;;;;761177;179;1020028;-72
2021/04/30 04:38:53;;;;;;;15.35;12.52;;;;;;;;;;766008;180;1092065;-69
2021/04/30 04:41:19;;;;;;;16.53;11.77;;;;;;;;;;766387;179;916711;-68
2021/04/30 04:43:44;;;;;;;26.73;13.80;;;;;;;;;;760791;179;1109030;-70
2021/04/30 04:46:10;;;;;;;18.12;13.18;;;;;;;;;;761139;179;772650;-69
2021/04/30 04:48:36;;;;;;;25.87;14.60;;;;;;;;;;766751;181;919131;-69
2021/04/30 04:51:02;;;;;;;14.03;12.03;;;;;;;;;;765796;179;918594;-68
2021/04/30 04:53:28;;;;;;;19.62;14.18;;;;;;;;;;762066;182;1021252;-69
2021/04/30 04:55:54;;;;;;;19.13;14.47;;;;;;;;;;769810;182;926969;-69
2021/04/30 04:58:20;;;;;;;19.23;14.03;;;;;;;;;;765888;178;914831;-69
2021/04/30 05:00:45;;;;;;;20.93;13.23;;;;;;;;;;769111;179;919379;-70
2021/04/30 05:03:11;;;;;;;20.13;14.50;;;;;;;;;;769021;179;774957;-69
2021/04/30 05:05:37;;;;;;;23.67;16.63;;;;;;;;;;767715;178;811784;-68
2021/04/30 05:08:03;;;;;;;20.50;15.67;;;;;;;;;;762070;179;1219317;-69
2021/04/30 05:10:29;;;;;;;22.83;17.17;;;;;;;;;;767239;179;636617;-69
2021/04/30 05:12:55;;;;;;;20.27;14.90;;;;;;;;;;772616;179;628889;-69
2021/04/30 05:15:22;;;;;;;23.37;15.93;;;;;;;;;;766621;179;880029;-69
2021/04/30 05:17:46;;;;;;;20.80;15.80;;;;;;;;;;764642;179;915374;-68
2021/04/30 05:20:13;;;;;;;21.57;15.33;;;;;;;;;;765790;182;915205;-67
2021/04/30 05:22:41;;;;;;;18.30;15.30;;;;;;;;;;760038;179;1024170;-68
2021/04/30 05:25:05;;;;;;;20.67;15.70;;;;;;;;;;764622;182;625398;-67
2021/04/30 05:27:32;;;;;;;19.80;15.13;;;;;;;;;;769426;179;624858;-67
2021/04/30 05:29:57;;;;;;;17.07;13.30;;;;;;;;;;763794;179;914581;-67
2021/04/30 05:32:23;;;;;;;14.53;11.13;;;;;;;;;;766146;182;1036909;-67
2021/04/30 05:34:49;;;;;;;16.63;12.23;;;;;;;;;;762002;182;915060;-66
2021/04/30 05:37:15;;;;;;;15.47;11.30;;;;;;;;;;775629;179;618490;-68
2021/04/30 05:39:41;;;;;;;20.73;12.53;;;;;;;;;;763814;179;639751;-68
2021/04/30 05:42:07;;;;;;;16.30;12.90;;;;;;;;;;764214;182;919334;-67
2021/04/30 05:44:33;;;;;;;18.40;13.03;;;;;;;;;;768383;179;615407;-70
2021/04/30 05:46:58;;;;;;;18.17;12.57;;;;;;;;;;757924;181;953422;-67
2021/04/30 05:49:26;;;;;;;19.63;12.43;;;;;;;;;;753475;179;2105600;-67
2021/04/30 05:51:50;;;;;;;17.43;12.90;;;;;;;;;;764923;182;918269;-69
2021/04/30 05:54:21;;;;;;;16.20;11.97;;;;;;;;;;765880;179;637364;-68
2021/04/30 05:56:48;;;;;;;16.73;12.40;;;;;;;;;;768781;179;633091;-69
2021/04/30 05:59:13;;;;;;;16.30;11.73;;;;;;;;;;768100;179;629970;-68
2021/04/30 06:01:40;;;;;;;15.47;11.80;;;;;;;;;;768736;180;911771;-68
2021/04/30 06:04:06;;;;;;;15.43;11.57;;;;;;;;;;770281;179;634481;-69
2021/04/30 06:06:32;;;;;;;19.70;12.50;;;;;;;;;;755158;182;1021232;-68
2021/04/30 06:08:59;;;;;;;20.20;13.30;;;;;;;;;;766436;180;919361;-68
2021/04/30 06:11:25;;;;;;;15.50;12.17;;;;;;;;;;765316;178;817119;-69
2021/04/30 06:13:50;;;;;;;16.53;11.80;;;;;;;;;;767867;177;918939;-68
2021/04/30 06:16:16;;;;;;;16.35;11.60;;;;;;;;;;764343;178;937584;-68
2021/04/30 06:18:42;;;;;;;13.87;11.17;;;;;;;;;;748634;186;916461;-69
2021/04/30 06:21:08;;;;;;;13.50;10.23;;;;;;;;;;761143;179;920381;-68
2021/04/30 06:23:34;;;;;;;19.73;12.13;;;;;;;;;;765313;179;915637;-68
2021/04/30 06:26:00;;;;;;;14.73;11.60;;;;;;;;;;768004;182;920092;-69
2021/04/30 06:28:26;;;;;;;15.73;10.80;;;;;;;;;;770011;182;919883;-69
2021/04/30 06:30:52;;;;;;;17.73;11.43;;;;;;;;;;748750;179;4065505;-69
2021/04/30 06:33:18;;;;;;;15.53;10.03;;;;;;;;;;767574;180;626041;-69
2021/04/30 06:35:44;;;;;;;15.27;10.73;;;;;;;;;;766564;179;916252;-69
2021/04/30 06:38:10;;;;;;;13.50;9.47;;;;;;;;;;761313;179;916659;-69
2021/04/30 06:40:36;;;;;;;11.93;8.47;;;;;;;;;;768227;182;968867;-69
2021/04/30 06:43:02;;;;;;;10.30;8.33;;;;;;;;;;765180;182;855246;-69
2021/04/30 06:45:27;;;;;;;10.30;7.97;;;;;;;;;;767579;182;910040;-68
2021/04/30 06:47:53;;;;;;;15.73;9.50;;;;;;;;;;765117;179;971288;-69
2021/04/30 06:50:19;;;;;;;10.30;8.67;;;;;;;;;;770740;179;850011;-71
2021/04/30 06:52:45;;;;;;;13.13;8.80;;;;;;;;;;762152;179;618462;-69
2021/04/30 06:55:11;;;;;;;15.43;9.20;;;;;;;;;;768958;179;624296;-69
2021/04/30 06:57:37;;;;;;;11.40;8.77;;;;;;;;;;761710;182;946551;-70
2021/04/30 07:00:03;;;;;;;12.80;9.93;;;;;;;;;;765608;182;1022045;-69
2021/04/30 07:02:29;;;;;;;12.00;9.63;;;;;;;;;;757350;179;919601;-70
2021/04/30 07:04:55;;;;;;;9.50;8.30;;;;;;;;;;769560;179;918860;-68
2021/04/30 07:07:20;;;;;;;13.10;9.77;;;;;;;;;;761577;179;918700;-69
2021/04/30 07:09:46;;;;;;;11.83;10.23;;;;;;;;;;760545;179;940127;-69
2021/04/30 07:12:12;;;;;;;15.87;10.63;;;;;;;;;;764504;182;919433;-70
2021/04/30 07:14:38;;;;;;;9.60;8.60;;;;;;;;;;761610;182;918997;-70
2021/04/30 07:17:04;;;;;;;12.03;9.30;;;;;;;;;;764534;179;925792;-70
2021/04/30 07:19:29;;;;;;;11.70;9.40;;;;;;;;;;758311;179;1610386;-69
2021/04/30 07:21:55;;;;;;;13.87;8.93;;;;;;;;;;772177;179;919187;-70
2021/04/30 07:24:21;;;;;;;12.43;9.13;;;;;;;;;;769160;178;918973;-70
2021/04/30 07:26:47;;;;;;;12.60;8.73;;;;;;;;;;762273;182;1018025;-69
2021/04/30 07:29:13;;;;;;;12.70;10.20;;;;;;;;;;769794;179;917352;-70
2021/04/30 07:31:39;;;;;;;13.43;9.70;;;;;;;;;;761885;181;1023048;-70
2021/04/30 07:34:04;;;;;;;10.43;9.20;;;;;;;;;;764078;179;919343;-68
2021/04/30 07:36:30;;;;;;;12.57;9.67;;;;;;;;;;768468;182;918569;-72
2021/04/30 07:38:56;;;;;;;13.63;9.33;;;;;;;;;;755999;182;1188301;-69
2021/04/30 07:41:22;;;;;;;12.20;8.90;;;;;;;;;;769865;179;634980;-70
2021/04/30 07:43:48;;;;;;;18.07;10.30;;;;;;;;;;759866;182;633251;-71
2021/04/30 07:46:14;;;;;;;15.80;10.20;;;;;;;;;;773054;179;620685;-71
2021/04/30 07:48:40;;;;;;;13.33;8.93;;;;;;;;;;769360;182;635033;-71
2021/04/30 07:51:05;;;;;;;15.07;10.50;;;;;;;;;;763274;179;632721;-70
2021/04/30 07:53:32;;;;;;;11.83;9.53;;;;;;;;;;769473;179;625087;-70
2021/04/30 07:55:58;;;;;;;15.33;11.77;;;;;;;;;;766546;179;621988;-72
2021/04/30 07:58:27;;;;;;;17.73;12.00;;;;;;;;;;754887;181;917910;-71
2021/04/30 08:00:52;;;;;;;13.63;10.33;;;;;;;;;;766228;179;885056;-71
2021/04/30 08:03:20;;;;;;;14.07;10.60;;;;;;;;;;755052;186;616601;-71
2021/04/30 08:05:44;;;;;;;15.40;10.90;;;;;;;;;;759653;179;644893;-71
2021/04/30 08:08:10;;;;;;;13.63;11.03;;;;;;;;;;759547;179;626207;-71
2021/04/30 08:10:36;;;;;;;18.43;9.70;;;;;;;;;;768998;180;637336;-71
2021/04/30 08:13:02;;;;;;;14.20;9.23;;;;;;;;;;768965;182;635697;-71
2021/04/30 08:15:28;;;;;;;11.63;8.63;;;;;;;;;;766917;179;631781;-71
2021/04/30 08:17:53;;;;;;;13.97;10.90;;;;;;;;;;765279;179;639370;-70
2021/04/30 08:20:19;;;;;;;13.57;10.53;;;;;;;;;;766439;179;618107;-70
2021/04/30 08:22:45;;;;;;;15.10;10.40;;;;;;;;;;762737;180;617565;-71
2021/04/30 08:25:13;;;;;;;17.90;13.23;;;;;;;;;;769054;182;630434;-74
2021/04/30 08:27:39;;;;;;;12.20;10.50;;;;;;;;;;770334;179;629879;-70
2021/04/30 08:30:05;;;;;;;13.90;9.37;;;;;;;;;;769883;179;614424;-71
2021/04/30 08:32:31;;;;;;;12.20;10.40;;;;;;;;;;763625;180;636110;-70
2021/04/30 08:34:58;;;;;;;13.63;10.47;;;;;;;;;;776434;178;629897;-70
2021/04/30 08:37:23;;;;;;;17.20;10.47;;;;;;;;;;770569;179;672786;-70
2021/04/30 08:39:49;;;;;;;16.37;11.83;;;;;;;;;;767264;179;636972;-70
2021/04/30 08:42:15;;;;;;;15.57;11.50;;;;;;;;;;771911;179;634118;-70
2021/04/30 08:44:40;;;;;;;14.83;10.90;;;;;;;;;;769366;179;631115;-69
2021/04/30 08:47:07;;;;;;;12.90;9.82;;;;;;;;;;759069;179;934840;-69
2021/04/30 08:49:32;;;;;;;16.40;9.90;;;;;;;;;;769106;182;629069;-70
2021/04/30 08:51:58;;;;;;;14.97;11.00;;;;;;;;;;765598;179;630013;-70
2021/04/30 08:54:24;;;;;;;15.03;8.83;;;;;;;;;;766513;182;624757;-70
2021/04/30 08:56:53;;;;;;;11.30;9.27;;;;;;;;;;765402;179;622551;-70
2021/04/30 08:59:17;;;;;;;11.73;9.50;;;;;;;;;;771028;179;626368;-71
2021/04/30 09:01:44;;;;;;;14.17;9.93;;;;;;;;;;767271;179;636753;-73
2021/04/30 09:04:09;;;;;;;15.57;11.10;;;;;;;;;;770612;179;627430;-72
2021/04/30 09:06:38;;;;;;;11.67;9.63;;;;;;;;;;769515;182;615204;-73
2021/04/30 09:09:07;;;;;;;16.00;11.10;;;;;;;;;;766879;179;626823;-69
2021/04/30 09:11:33;;;;;;;13.20;10.35;;;;;;;;;;769552;179;660144;-70
2021/04/30 09:14:06;;;;;;;13.47;10.57;;;;;;;;;;767598;179;619266;-71
2021/04/30 09:16:32;;;;;;;13.80;9.07;;;;;;;;;;773531;182;641107;-70
2021/04/30 09:18:57;;;;;;;11.17;9.50;;;;;;;;;;759765;179;633359;-70
2021/04/30 09:21:23;;;;;;;15.30;9.50;;;;;;;;;;763850;182;629536;-71
2021/04/30 09:23:49;;;;;;;14.23;10.60;;;;;;;;;;770646;179;636459;-70
2021/04/30 09:26:20;;;;;;;12.00;9.30;;;;;;;;;;770859;179;627056;-69
2021/04/30 09:28:52;;;;;;;11.83;9.90;;;;;;;;;;768024;179;652257;-71
2021/04/30 09:31:20;;;;;;;11.40;9.67;;;;;;;;;;768272;179;638148;-69
2021/04/30 09:33:46;;;;;;;10.00;7.70;;;;;;;;;;758432;179;1619880;-69
2021/04/30 09:36:12;;;;;;;14.13;10.27;;;;;;;;;;767071;180;613907;-70
2021/04/30 09:38:39;;;;;;;13.83;10.60;;;;;;;;;;767162;179;631724;-70
2021/04/30 09:41:06;;;;;;;13.60;11.07;;;;;;;;;;767049;182;630905;-69
2021/04/30 09:43:36;;;;;;;11.77;10.03;;;;;;;;;;771910;179;624446;-69
2021/04/30 09:46:02;;;;;;;13.77;9.95;;;;;;;;;;762961;179;867291;-74
2021/04/30 09:48:30;;;;;;;14.63;11.00;;;;;;;;;;764235;182;645111;-73
2021/04/30 09:50:55;;;;;;;14.30;11.17;;;;;;;;;;764668;179;642675;-71
2021/04/30 09:53:21;;;;;;;13.40;9.90;;;;;;;;;;770017;179;645232;-68
2021/04/30 09:55:49;;;;;;;15.70;10.47;;;;;;;;;;763329;179;1685321;-71
2021/04/30 09:58:16;;;;;;;14.93;10.70;;;;;;;;;;770063;179;625247;-70
2021/04/30 10:00:42;;;;;;;13.27;11.13;;;;;;;;;;771345;182;626352;-71
2021/04/30 10:03:14;;;;;;;14.45;10.95;;;;;;;;;;766470;179;637941;-70
2021/04/30 10:05:55;;;;;;;15.10;9.80;;;;;;;;;;767967;177;628204;-71
2021/04/30 10:08:21;;;;;;;11.43;10.23;;;;;;;;;;768656;179;625342;-71
2021/04/30 10:10:47;;;;;;;10.20;9.10;;;;;;;;;;766369;179;621194;-74
2021/04/30 10:13:14;;;;;;;13.57;11.23;;;;;;;;;;772271;182;622663;-73
2021/04/30 10:15:40;;;;;;;14.57;10.63;;;;;;;;;;759620;179;2110378;-72
2021/04/30 10:18:06;;;;;;;12.13;8.93;;;;;;;;;;767825;179;642827;-72
2021/04/30 10:20:31;;;;;;;13.87;8.30;;;;;;;;;;770903;179;618548;-70
2021/04/30 10:22:59;;;;;;;13.93;10.17;;;;;;;;;;770632;182;625689;-72
2021/04/30 10:25:23;;;;;;;14.53;9.10;;;;;;;;;;765974;179;667970;-73
2021/04/30 10:27:50;;;;;;;13.60;10.57;;;;;;;;;;771728;179;619427;-72
2021/04/30 10:30:19;;;;;;;12.30;9.17;;;;;;;;;;765932;179;619658;-70
2021/04/30 10:32:50;;;;;;;12.03;9.90;;;;;;;;;;768360;179;653687;-71
2021/04/30 10:35:16;;;;;;;15.20;10.03;;;;;;;;;;766598;179;629580;-70
2021/04/30 10:37:42;;;;;;;14.90;11.20;;;;;;;;;;771217;179;618872;-71
2021/04/30 10:40:08;;;;;;;12.77;9.97;;;;;;;;;;769037;181;721061;-71
2021/04/30 10:42:39;;;;;;;13.40;10.10;;;;;;;;;;764966;179;720479;-72
2021/04/30 10:45:05;;;;;;;11.90;10.37;;;;;;;;;;765981;180;624784;-71
2021/04/30 10:47:30;;;;;;;9.80;8.80;;;;;;;;;;767488;179;638064;-72
2021/04/30 10:50:01;;;;;;;13.60;10.80;;;;;;;;;;760910;182;625488;-72
2021/04/30 10:52:27;;;;;;;11.40;9.53;;;;;;;;;;765380;179;633867;-70
2021/04/30 10:54:59;;;;;;;13.70;8.20;;;;;;;;;;774960;179;624677;-71
2021/04/30 10:57:25;;;;;;;12.40;8.33;;;;;;;;;;764692;180;628792;-72
2021/04/30 10:59:51;;;;;;;10.27;7.60;;;;;;;;;;763816;179;1292656;-72
2021/04/30 11:02:31;;;;;;;10.30;7.07;;;;;;;;;;767589;179;709365;-71
2021/04/30 11:05:02;;;;;;;9.63;7.77;;;;;;;;;;768985;178;626421;-73
2021/04/30 11:07:28;;;;;;;12.10;9.50;;;;;;;;;;769293;179;633173;-72
2021/04/30 11:09:54;;;;;;;16.80;8.53;;;;;;;;;;771831;179;617399;-71
2021/04/30 11:12:19;;;;;;;8.97;8.00;;;;;;;;;;769790;179;618634;-71
2021/04/30 11:14:52;;;;;;;12.60;8.52;;;;;;;;;;770477;182;637094;-71
2021/04/30 11:17:18;;;;;;;11.03;8.50;;;;;;;;;;765728;181;635693;-72
2021/04/30 11:19:44;;;;;;;8.77;7.55;;;;;;;;;;769440;182;630262;-71
2021/04/30 11:22:10;;;;;;;9.80;8.80;;;;;;;;;;761084;182;1295197;-72
2021/04/30 11:24:36;;;;;;;11.93;8.10;;;;;;;;;;772979;179;646635;-72
2021/04/30 11:27:10;;;;;;;12.97;8.70;;;;;;;;;;768387;179;633452;-73
2021/04/30 11:29:36;;;;;;;14.37;9.40;;;;;;;;;;766104;180;894455;-71
2021/04/30 11:32:07;;;;;;;11.50;7.93;;;;;;;;;;769852;179;623719;-73
2021/04/30 11:34:35;;;;;;;12.60;9.13;;;;;;;;;;772362;179;622940;-73
2021/04/30 11:37:03;;;;;;;11.03;8.07;;;;;;;;;;767869;182;627591;-72
2021/04/30 11:39:27;;;;;;;13.37;9.87;;;;;;;;;;766944;179;628076;-73
2021/04/30 11:41:52;;;;;;;10.07;9.03;;;;;;;;;;766053;179;633195;-70
2021/04/30 11:44:19;;;;;;;12.27;8.83;;;;;;;;;;770551;179;620120;-73
2021/04/30 11:46:44;;;;;;;12.13;9.67;;;;;;;;;;768434;179;633473;-72
2021/04/30 11:49:12;;;;;;;13.63;8.87;;;;;;;;;;765551;179;680938;-71
2021/04/30 11:51:41;;;;;;;10.87;9.03;;;;;;;;;;772597;182;643375;-72
2021/04/30 11:54:07;;;;;;;12.97;9.27;;;;;;;;;;766400;180;628591;-72
2021/04/30 11:56:33;;;;;;;10.67;8.10;;;;;;;;;;769040;179;627591;-73
2021/04/30 11:58:59;;;;;;;10.10;8.83;;;;;;;;;;767702;180;633063;-72
2021/04/30 12:01:26;;;;;;;12.43;9.63;;;;;;;;;;758027;185;620875;-72
2021/04/30 12:03:53;;;;;;;10.00;8.80;;;;;;;;;;766711;179;632248;-72
2021/04/30 12:06:18;;;;;;;17.40;8.73;;;;;;;;;;771676;179;617293;-71
2021/04/30 12:08:48;;;;;;;10.77;8.97;;;;;;;;;;771138;182;639672;-70
2021/04/30 12:11:20;;;;;;;14.77;8.97;;;;;;;;;;770925;178;821723;-73
2021/04/30 12:13:46;;;;;;;13.30;10.10;;;;;;;;;;768139;179;1091407;-73
2021/04/30 12:16:13;;;;;;;11.37;8.10;;;;;;;;;;768830;182;636259;-72
2021/04/30 12:18:39;;;;;;;9.57;8.10;;;;;;;;;;775850;179;614761;-72
2021/04/30 12:21:04;;;;;;;12.50;9.47;;;;;;;;;;765489;179;670141;-71
2021/04/30 12:23:30;;;;;;;11.80;9.07;;;;;;;;;;771666;179;638227;-71
2021/04/30 12:25:56;;;;;;;11.50;10.00;;;;;;;;;;770554;179;628073;-72
2021/04/30 12:28:25;;;;;;;11.60;10.40;;;;;;;;;;768057;179;641675;-71
2021/04/30 12:30:51;;;;;;;13.83;9.40;;;;;;;;;;764282;179;1022009;-71
2021/04/30 12:33:20;;;;;;;9.77;8.77;;;;;;;;;;767817;181;758242;-71
2021/04/30 12:35:46;;;;;;;15.83;10.47;;;;;;;;;;770585;179;633259;-74
2021/04/30 12:38:12;;;;;;;12.10;10.27;;;;;;;;;;771709;179;616011;-71
2021/04/30 12:40:38;;;;;;;12.87;10.83;;;;;;;;;;768493;179;657024;-72
2021/04/30 12:43:03;;;;;;;11.90;10.37;;;;;;;;;;770836;182;626354;-71
2021/04/30 12:45:29;;;;;;;14.20;10.50;;;;;;;;;;765988;180;719016;-72
2021/04/30 12:47:55;;;;;;;14.90;9.70;;;;;;;;;;770989;179;631700;-71
2021/04/30 12:50:29;;;;;;;10.77;9.37;;;;;;;;;;771921;179;635714;-72
2021/04/30 12:52:55;;;;;;;12.17;9.80;;;;;;;;;;773685;179;633438;-70
2021/04/30 12:55:21;;;;;;;12.17;9.20;;;;;;;;;;765744;180;621756;-71
2021/04/30 12:57:47;;;;;;;11.00;9.67;;;;;;;;;;761930;179;623168;-71
2021/04/30 13:00:13;;;;;;;15.20;9.73;;;;;;;;;;771773;179;623567;-72
2021/04/30 13:02:39;;;;;;;12.90;10.30;;;;;;;;;;767789;179;626498;-72
2021/04/30 13:05:05;;;;;;;12.20;9.57;;;;;;;;;;768105;179;633002;-71
2021/04/30 13:07:31;;;;;;;13.83;10.27;;;;;;;;;;765282;179;622123;-74
2021/04/30 13:09:56;;;;;;;12.97;9.80;;;;;;;;;;760141;179;630379;-72
2021/04/30 13:12:22;;;;;;;12.13;9.90;;;;;;;;;;768669;179;627335;-72
2021/04/30 13:14:54;;;;;;;17.20;9.90;;;;;;;;;;765065;180;632971;-71
2021/04/30 13:17:22;;;;;;;10.63;8.63;;;;;;;;;;763679;179;655520;-71
2021/04/30 13:19:48;;;;;;;13.80;8.47;;;;;;;;;;769820;181;616937;-68
2021/04/30 13:22:15;;;;;;;10.87;8.33;;;;;;;;;;768926;178;644289;-71
2021/04/30 13:24:41;;;;;;;11.90;9.37;;;;;;;;;;771490;179;633428;-71
2021/04/30 13:27:09;;;;;;;13.53;9.00;;;;;;;;;;774870;178;628952;-68
2021/04/30 13:29:37;;;;;;;13.13;8.70;;;;;;;;;;772909;179;626800;-70
2021/04/30 13:32:12;;;;;;;11.60;7.60;;;;;;;;;;769814;179;719739;-69
2021/04/30 13:34:43;;;;;;;10.63;6.93;;;;;;;;;;766022;179;1195263;-71
2021/04/30 13:37:09;;;;;;;10.33;7.37;;;;;;;;;;759580;179;1740672;-70
2021/04/30 13:39:36;;;;;;;10.93;7.30;;;;;;;;;;765385;179;639388;-70
2021/04/30 13:42:01;;;;;;;19.30;7.37;;;;;;;;;;767272;179;638989;-69
2021/04/30 13:44:27;;;;;;;9.37;7.17;;;;;;;;;;771636;179;618460;-69
2021/04/30 13:46:53;;;;;;;18.20;7.00;;;;;;;;;;770555;179;617215;-71
2021/04/30 13:49:19;;;;;;;10.13;6.97;;;;;;;;;;762063;179;634058;-71
2021/04/30 13:51:45;;;;;;;8.93;7.23;;;;;;;;;;765773;182;635127;-70
2021/04/30 13:54:11;;;;;;;8.40;6.87;;;;;;;;;;770858;180;634669;-70
2021/04/30 13:56:36;;;;;;;10.40;8.37;;;;;;;;;;766259;179;822625;-72
2021/04/30 13:59:04;;;;;;;9.30;8.27;;;;;;;;;;763798;179;851245;-69
2021/04/30 14:01:30;;;;;;;10.57;8.40;;;;;;;;;;771965;179;634761;-69
2021/04/30 14:03:55;;;;;;;12.20;8.10;;;;;;;;;;766879;179;632280;-70